sensor_id;sensor_type;location;lat;lon;timestamp;P1;durP1;ratioP1;P2;durP2;ratioP2
44456;SDS011;30159;49.316;8.558;2023-07-13T00:02:17;1.10;;;1.00;;
44456;SDS011;30159;49.316;8.558;2023-07-13T00:04:44;3.50;;;1.10;;
44456;SDS011;30159;49.316;8.558;2023-07-13T00:07:10;1.47;;;0.90;;
44456;SDS011;30159;49.316;8.558;2023-07-13T00:09:39;1.20;;;1.10;;
44456;SDS011;30159;49.316;8.558;2023-07-13T00:12:25;1.20;;;1.00;;
44456;SDS011;30159;49.316;8.558;2023-07-13T00:14:54;1.00;;;0.90;;
44456;SDS011;30159;49.316;8.558;2023-07-13T00:17:21;1.03;;;1.00;;
44456;SDS011;30159;49.316;8.558;2023-07-13T00:19:48;0.90;;;0.90;;
44456;SDS011;30159;49.316;8.558;2023-07-13T00:22:15;2.17;;;1.10;;
44456;SDS011;30159;49.316;8.558;2023-07-13T00:24:43;1.60;;;1.00;;
44456;SDS011;30159;49.316;8.558;2023-07-13T00:27:11;1.77;;;1.00;;
44456;SDS011;30159;49.316;8.558;2023-07-13T00:29:38;2.40;;;1.10;;
44456;SDS011;30159;49.316;8.558;2023-07-13T00:32:05;1.73;;;1.10;;
44456;SDS011;30159;49.316;8.558;2023-07-13T00:34:34;1.60;;;1.50;;
44456;SDS011;30159;49.316;8.558;2023-07-13T00:37:01;1.20;;;1.10;;
44456;SDS011;30159;49.316;8.558;2023-07-13T00:39:27;3.13;;;1.10;;
44456;SDS011;30159;49.316;8.558;2023-07-13T00:41:54;1.23;;;1.13;;
44456;SDS011;30159;49.316;8.558;2023-07-13T00:44:22;2.07;;;1.00;;
44456;SDS011;30159;49.316;8.558;2023-07-13T00:46:49;1.40;;;1.10;;
44456;SDS011;30159;49.316;8.558;2023-07-13T00:49:17;3.00;;;1.30;;
44456;SDS011;30159;49.316;8.558;2023-07-13T00:51:47;1.27;;;1.17;;
44456;SDS011;30159;49.316;8.558;2023-07-13T00:54:18;1.23;;;1.13;;
44456;SDS011;30159;49.316;8.558;2023-07-13T00:56:48;1.80;;;1.23;;
44456;SDS011;30159;49.316;8.558;2023-07-13T00:59:17;1.50;;;1.40;;
44456;SDS011;30159;49.316;8.558;2023-07-13T01:01:47;1.30;;;1.20;;
44456;SDS011;30159;49.316;8.558;2023-07-13T01:04:13;1.20;;;1.10;;
44456;SDS011;30159;49.316;8.558;2023-07-13T01:06:40;1.63;;;1.23;;
44456;SDS011;30159;49.316;8.558;2023-07-13T01:09:09;1.10;;;1.00;;
44456;SDS011;30159;49.316;8.558;2023-07-13T01:11:37;1.20;;;1.10;;
44456;SDS011;30159;49.316;8.558;2023-07-13T01:14:04;2.90;;;1.50;;
44456;SDS011;30159;49.316;8.558;2023-07-13T01:16:31;1.63;;;1.33;;
44456;SDS011;30159;49.316;8.558;2023-07-13T01:19:00;1.13;;;1.03;;
44456;SDS011;30159;49.316;8.558;2023-07-13T01:21:32;1.43;;;1.23;;
44456;SDS011;30159;49.316;8.558;2023-07-13T01:23:59;1.40;;;1.23;;
44456;SDS011;30159;49.316;8.558;2023-07-13T01:26:27;1.50;;;1.30;;
44456;SDS011;30159;49.316;8.558;2023-07-13T01:28:54;1.73;;;1.20;;
44456;SDS011;30159;49.316;8.558;2023-07-13T01:31:21;1.20;;;1.10;;
44456;SDS011;30159;49.316;8.558;2023-07-13T01:33:48;1.73;;;1.20;;
44456;SDS011;30159;49.316;8.558;2023-07-13T01:36:14;9.83;;;1.30;;
44456;SDS011;30159;49.316;8.558;2023-07-13T01:38:42;1.20;;;1.10;;
44456;SDS011;30159;49.316;8.558;2023-07-13T01:41:09;1.63;;;1.50;;
44456;SDS011;30159;49.316;8.558;2023-07-13T01:43:36;2.70;;;1.40;;
44456;SDS011;30159;49.316;8.558;2023-07-13T01:46:02;1.33;;;1.23;;
44456;SDS011;30159;49.316;8.558;2023-07-13T01:48:29;1.90;;;1.10;;
44456;SDS011;30159;49.316;8.558;2023-07-13T01:50:55;1.40;;;1.30;;
44456;SDS011;30159;49.316;8.558;2023-07-13T01:53:22;1.40;;;1.30;;
44456;SDS011;30159;49.316;8.558;2023-07-13T01:55:50;2.40;;;1.87;;
44456;SDS011;30159;49.316;8.558;2023-07-13T01:58:16;1.40;;;1.23;;
44456;SDS011;30159;49.316;8.558;2023-07-13T02:00:43;1.30;;;1.20;;
44456;SDS011;30159;49.316;8.558;2023-07-13T02:03:09;1.37;;;1.27;;
44456;SDS011;30159;49.316;8.558;2023-07-13T02:05:36;1.70;;;1.60;;
44456;SDS011;30159;49.316;8.558;2023-07-13T02:08:02;1.40;;;1.30;;
44456;SDS011;30159;49.316;8.558;2023-07-13T02:10:29;1.33;;;1.23;;
44456;SDS011;30159;49.316;8.558;2023-07-13T02:12:57;1.40;;;1.30;;
44456;SDS011;30159;49.316;8.558;2023-07-13T02:15:26;1.60;;;1.23;;
44456;SDS011;30159;49.316;8.558;2023-07-13T02:17:53;1.53;;;1.20;;
44456;SDS011;30159;49.316;8.558;2023-07-13T02:20:19;1.33;;;1.20;;
44456;SDS011;30159;49.316;8.558;2023-07-13T02:22:46;2.13;;;1.27;;
44456;SDS011;30159;49.316;8.558;2023-07-13T02:25:13;1.50;;;1.40;;
44456;SDS011;30159;49.316;8.558;2023-07-13T02:27:39;1.73;;;1.20;;
44456;SDS011;30159;49.316;8.558;2023-07-13T02:30:08;1.63;;;1.53;;
44456;SDS011;30159;49.316;8.558;2023-07-13T02:32:38;1.83;;;1.40;;
44456;SDS011;30159;49.316;8.558;2023-07-13T02:35:04;2.03;;;1.43;;
44456;SDS011;30159;49.316;8.558;2023-07-13T02:37:31;5.23;;;1.40;;
44456;SDS011;30159;49.316;8.558;2023-07-13T02:39:58;1.50;;;1.40;;
44456;SDS011;30159;49.316;8.558;2023-07-13T02:42:26;1.43;;;1.33;;
44456;SDS011;30159;49.316;8.558;2023-07-13T02:44:52;1.50;;;1.40;;
44456;SDS011;30159;49.316;8.558;2023-07-13T02:47:20;1.53;;;1.43;;
44456;SDS011;30159;49.316;8.558;2023-07-13T02:49:47;1.80;;;1.70;;
44456;SDS011;30159;49.316;8.558;2023-07-13T02:52:13;1.70;;;1.60;;
44456;SDS011;30159;49.316;8.558;2023-07-13T02:54:40;1.53;;;1.43;;
44456;SDS011;30159;49.316;8.558;2023-07-13T02:57:06;5.90;;;1.50;;
44456;SDS011;30159;49.316;8.558;2023-07-13T02:59:33;1.60;;;1.50;;
44456;SDS011;30159;49.316;8.558;2023-07-13T03:02:00;1.40;;;1.30;;
44456;SDS011;30159;49.316;8.558;2023-07-13T03:04:28;1.77;;;1.40;;
44456;SDS011;30159;49.316;8.558;2023-07-13T03:06:55;1.63;;;1.53;;
44456;SDS011;30159;49.316;8.558;2023-07-13T03:09:23;1.57;;;1.47;;
44456;SDS011;30159;49.316;8.558;2023-07-13T03:11:49;2.97;;;1.50;;
44456;SDS011;30159;49.316;8.558;2023-07-13T03:14:18;1.67;;;1.47;;
44456;SDS011;30159;49.316;8.558;2023-07-13T03:16:44;3.47;;;1.90;;
44456;SDS011;30159;49.316;8.558;2023-07-13T03:19:11;2.23;;;1.60;;
44456;SDS011;30159;49.316;8.558;2023-07-13T03:21:38;4.13;;;1.80;;
44456;SDS011;30159;49.316;8.558;2023-07-13T03:24:05;2.00;;;1.80;;
44456;SDS011;30159;49.316;8.558;2023-07-13T03:26:32;2.40;;;1.80;;
44456;SDS011;30159;49.316;8.558;2023-07-13T03:28:59;3.80;;;1.97;;
44456;SDS011;30159;49.316;8.558;2023-07-13T03:31:26;1.80;;;1.50;;
44456;SDS011;30159;49.316;8.558;2023-07-13T03:33:55;1.57;;;1.47;;
44456;SDS011;30159;49.316;8.558;2023-07-13T03:36:23;2.93;;;1.57;;
44456;SDS011;30159;49.316;8.558;2023-07-13T03:38:53;2.13;;;1.60;;
44456;SDS011;30159;49.316;8.558;2023-07-13T03:41:22;1.50;;;1.40;;
44456;SDS011;30159;49.316;8.558;2023-07-13T03:43:49;3.00;;;1.60;;
44456;SDS011;30159;49.316;8.558;2023-07-13T03:46:16;1.50;;;1.40;;
44456;SDS011;30159;49.316;8.558;2023-07-13T03:48:44;1.60;;;1.50;;
44456;SDS011;30159;49.316;8.558;2023-07-13T03:51:11;3.23;;;1.77;;
44456;SDS011;30159;49.316;8.558;2023-07-13T03:53:40;2.73;;;1.97;;
44456;SDS011;30159;49.316;8.558;2023-07-13T03:56:09;1.53;;;1.40;;
44456;SDS011;30159;49.316;8.558;2023-07-13T03:58:36;6.33;;;1.63;;
44456;SDS011;30159;49.316;8.558;2023-07-13T04:01:05;1.60;;;1.50;;
44456;SDS011;30159;49.316;8.558;2023-07-13T04:03:33;2.13;;;1.60;;
44456;SDS011;30159;49.316;8.558;2023-07-13T04:06:02;1.90;;;1.50;;
44456;SDS011;30159;49.316;8.558;2023-07-13T04:08:30;3.57;;;1.40;;
44456;SDS011;30159;49.316;8.558;2023-07-13T04:10:58;1.60;;;1.50;;
44456;SDS011;30159;49.316;8.558;2023-07-13T04:13:26;1.60;;;1.50;;
44456;SDS011;30159;49.316;8.558;2023-07-13T04:15:53;1.70;;;1.60;;
44456;SDS011;30159;49.316;8.558;2023-07-13T04:18:20;1.77;;;1.67;;
44456;SDS011;30159;49.316;8.558;2023-07-13T04:20:47;1.63;;;1.53;;
44456;SDS011;30159;49.316;8.558;2023-07-13T04:23:15;2.50;;;1.60;;
44456;SDS011;30159;49.316;8.558;2023-07-13T04:25:43;5.50;;;1.80;;
44456;SDS011;30159;49.316;8.558;2023-07-13T04:28:10;2.40;;;1.67;;
44456;SDS011;30159;49.316;8.558;2023-07-13T04:30:37;1.50;;;1.40;;
44456;SDS011;30159;49.316;8.558;2023-07-13T04:33:04;1.63;;;1.53;;
44456;SDS011;30159;49.316;8.558;2023-07-13T04:35:31;1.90;;;1.80;;
44456;SDS011;30159;49.316;8.558;2023-07-13T04:37:57;1.70;;;1.60;;
44456;SDS011;30159;49.316;8.558;2023-07-13T04:40:26;2.83;;;1.80;;
44456;SDS011;30159;49.316;8.558;2023-07-13T04:42:54;1.67;;;1.40;;
44456;SDS011;30159;49.316;8.558;2023-07-13T04:45:21;2.50;;;1.80;;
44456;SDS011;30159;49.316;8.558;2023-07-13T04:47:50;1.90;;;1.60;;
44456;SDS011;30159;49.316;8.558;2023-07-13T04:50:17;1.93;;;1.50;;
44456;SDS011;30159;49.316;8.558;2023-07-13T04:52:48;1.47;;;1.30;;
44456;SDS011;30159;49.316;8.558;2023-07-13T04:55:14;2.00;;;1.80;;
44456;SDS011;30159;49.316;8.558;2023-07-13T04:57:41;1.70;;;1.60;;
44456;SDS011;30159;49.316;8.558;2023-07-13T05:00:08;1.70;;;1.60;;
44456;SDS011;30159;49.316;8.558;2023-07-13T05:02:37;1.70;;;1.60;;
44456;SDS011;30159;49.316;8.558;2023-07-13T05:05:06;2.00;;;1.77;;
44456;SDS011;30159;49.316;8.558;2023-07-13T05:07:33;1.70;;;1.60;;
44456;SDS011;30159;49.316;8.558;2023-07-13T05:10:00;2.43;;;1.60;;
44456;SDS011;30159;49.316;8.558;2023-07-13T05:12:27;1.97;;;1.77;;
44456;SDS011;30159;49.316;8.558;2023-07-13T05:14:53;1.60;;;1.50;;
44456;SDS011;30159;49.316;8.558;2023-07-13T05:17:20;4.03;;;1.50;;
44456;SDS011;30159;49.316;8.558;2023-07-13T05:19:46;2.13;;;1.53;;
44456;SDS011;30159;49.316;8.558;2023-07-13T05:22:14;2.27;;;1.87;;
44456;SDS011;30159;49.316;8.558;2023-07-13T05:24:41;3.13;;;1.77;;
44456;SDS011;30159;49.316;8.558;2023-07-13T05:27:07;2.73;;;2.10;;
44456;SDS011;30159;49.316;8.558;2023-07-13T05:29:34;1.93;;;1.83;;
44456;SDS011;30159;49.316;8.558;2023-07-13T05:32:01;5.03;;;2.30;;
44456;SDS011;30159;49.316;8.558;2023-07-13T05:34:28;1.87;;;1.47;;
44456;SDS011;30159;49.316;8.558;2023-07-13T05:36:55;1.60;;;1.50;;
44456;SDS011;30159;49.316;8.558;2023-07-13T05:39:23;1.53;;;1.43;;
44456;SDS011;30159;49.316;8.558;2023-07-13T05:41:51;1.57;;;1.47;;
44456;SDS011;30159;49.316;8.558;2023-07-13T05:44:17;1.60;;;1.50;;
44456;SDS011;30159;49.316;8.558;2023-07-13T05:46:44;2.20;;;2.00;;
44456;SDS011;30159;49.316;8.558;2023-07-13T05:49:11;1.90;;;1.40;;
44456;SDS011;30159;49.316;8.558;2023-07-13T05:51:38;1.93;;;1.83;;
44456;SDS011;30159;49.316;8.558;2023-07-13T05:54:04;2.70;;;2.13;;
44456;SDS011;30159;49.316;8.558;2023-07-13T05:56:32;1.90;;;1.70;;
44456;SDS011;30159;49.316;8.558;2023-07-13T05:58:58;1.60;;;1.50;;
44456;SDS011;30159;49.316;8.558;2023-07-13T06:01:25;1.60;;;1.47;;
44456;SDS011;30159;49.316;8.558;2023-07-13T06:03:52;1.60;;;1.50;;
44456;SDS011;30159;49.316;8.558;2023-07-13T06:06:18;1.90;;;1.23;;
44456;SDS011;30159;49.316;8.558;2023-07-13T06:08:45;1.47;;;1.30;;
44456;SDS011;30159;49.316;8.558;2023-07-13T06:11:12;1.73;;;1.50;;
44456;SDS011;30159;49.316;8.558;2023-07-13T06:13:42;1.50;;;1.40;;
44456;SDS011;30159;49.316;8.558;2023-07-13T06:16:09;1.57;;;1.40;;
44456;SDS011;30159;49.316;8.558;2023-07-13T06:18:36;1.53;;;1.20;;
44456;SDS011;30159;49.316;8.558;2023-07-13T06:21:07;1.60;;;1.33;;
44456;SDS011;30159;49.316;8.558;2023-07-13T06:23:34;3.13;;;1.27;;
44456;SDS011;30159;49.316;8.558;2023-07-13T06:26:01;1.50;;;1.40;;
44456;SDS011;30159;49.316;8.558;2023-07-13T06:28:28;3.10;;;1.20;;
44456;SDS011;30159;49.316;8.558;2023-07-13T06:30:56;1.40;;;1.30;;
44456;SDS011;30159;49.316;8.558;2023-07-13T06:33:23;3.77;;;1.20;;
44456;SDS011;30159;49.316;8.558;2023-07-13T06:35:50;1.60;;;1.27;;
44456;SDS011;30159;49.316;8.558;2023-07-13T06:38:18;1.27;;;1.17;;
44456;SDS011;30159;49.316;8.558;2023-07-13T06:40:44;1.40;;;1.30;;
44456;SDS011;30159;49.316;8.558;2023-07-13T06:43:11;1.20;;;1.10;;
44456;SDS011;30159;49.316;8.558;2023-07-13T06:45:40;1.93;;;1.10;;
44456;SDS011;30159;49.316;8.558;2023-07-13T06:48:09;1.50;;;1.20;;
44456;SDS011;30159;49.316;8.558;2023-07-13T06:50:35;2.27;;;1.13;;
44456;SDS011;30159;49.316;8.558;2023-07-13T06:53:02;2.27;;;1.33;;
44456;SDS011;30159;49.316;8.558;2023-07-13T06:55:28;1.40;;;1.30;;
44456;SDS011;30159;49.316;8.558;2023-07-13T06:57:55;1.60;;;1.50;;
44456;SDS011;30159;49.316;8.558;2023-07-13T07:00:21;1.30;;;1.20;;
44456;SDS011;30159;49.316;8.558;2023-07-13T07:02:48;1.30;;;1.20;;
44456;SDS011;30159;49.316;8.558;2023-07-13T07:05:16;1.40;;;1.30;;
44456;SDS011;30159;49.316;8.558;2023-07-13T07:07:46;2.10;;;1.10;;
44456;SDS011;30159;49.316;8.558;2023-07-13T07:10:13;1.70;;;1.30;;
44456;SDS011;30159;49.316;8.558;2023-07-13T07:12:40;1.67;;;1.30;;
44456;SDS011;30159;49.316;8.558;2023-07-13T07:15:06;1.80;;;1.33;;
44456;SDS011;30159;49.316;8.558;2023-07-13T07:17:33;1.20;;;1.10;;
44456;SDS011;30159;49.316;8.558;2023-07-13T07:19:59;2.33;;;1.30;;
44456;SDS011;30159;49.316;8.558;2023-07-13T07:22:28;2.07;;;1.10;;
44456;SDS011;30159;49.316;8.558;2023-07-13T07:24:55;1.23;;;1.10;;
44456;SDS011;30159;49.316;8.558;2023-07-13T07:27:22;2.20;;;1.20;;
44456;SDS011;30159;49.316;8.558;2023-07-13T07:29:49;1.30;;;1.20;;
44456;SDS011;30159;49.316;8.558;2023-07-13T07:32:15;1.20;;;1.10;;
44456;SDS011;30159;49.316;8.558;2023-07-13T07:34:42;1.10;;;1.00;;
44456;SDS011;30159;49.316;8.558;2023-07-13T07:37:09;1.40;;;1.30;;
44456;SDS011;30159;49.316;8.558;2023-07-13T07:39:39;3.93;;;1.20;;
44456;SDS011;30159;49.316;8.558;2023-07-13T07:42:06;1.63;;;0.80;;
44456;SDS011;30159;49.316;8.558;2023-07-13T07:44:33;3.33;;;1.20;;
44456;SDS011;30159;49.316;8.558;2023-07-13T07:47:00;1.20;;;0.90;;
44456;SDS011;30159;49.316;8.558;2023-07-13T07:49:27;3.17;;;1.00;;
44456;SDS011;30159;49.316;8.558;2023-07-13T07:51:53;1.00;;;0.90;;
44456;SDS011;30159;49.316;8.558;2023-07-13T07:54:20;1.13;;;1.00;;
44456;SDS011;30159;49.316;8.558;2023-07-13T07:56:48;0.90;;;0.70;;
44456;SDS011;30159;49.316;8.558;2023-07-13T07:59:14;1.00;;;0.80;;
44456;SDS011;30159;49.316;8.558;2023-07-13T08:01:41;0.83;;;0.80;;
44456;SDS011;30159;49.316;8.558;2023-07-13T08:04:08;1.20;;;0.80;;
44456;SDS011;30159;49.316;8.558;2023-07-13T08:06:35;5.27;;;1.20;;
44456;SDS011;30159;49.316;8.558;2023-07-13T08:09:02;1.90;;;0.90;;
44456;SDS011;30159;49.316;8.558;2023-07-13T08:11:29;0.90;;;0.80;;
44456;SDS011;30159;49.316;8.558;2023-07-13T08:13:57;0.80;;;0.80;;
44456;SDS011;30159;49.316;8.558;2023-07-13T08:16:23;1.00;;;0.90;;
44456;SDS011;30159;49.316;8.558;2023-07-13T08:18:50;1.33;;;0.80;;
44456;SDS011;30159;49.316;8.558;2023-07-13T08:21:17;1.87;;;1.00;;
44456;SDS011;30159;49.316;8.558;2023-07-13T08:23:45;2.83;;;0.80;;
44456;SDS011;30159;49.316;8.558;2023-07-13T08:26:11;1.40;;;1.00;;
44456;SDS011;30159;49.316;8.558;2023-07-13T08:28:38;1.47;;;0.80;;
44456;SDS011;30159;49.316;8.558;2023-07-13T08:31:06;2.70;;;0.90;;
44456;SDS011;30159;49.316;8.558;2023-07-13T08:33:34;1.37;;;1.00;;
44456;SDS011;30159;49.316;8.558;2023-07-13T08:36:01;1.10;;;1.00;;
44456;SDS011;30159;49.316;8.558;2023-07-13T08:38:28;1.33;;;1.07;;
44456;SDS011;30159;49.316;8.558;2023-07-13T08:40:55;5.53;;;1.13;;
44456;SDS011;30159;49.316;8.558;2023-07-13T08:43:25;1.80;;;1.03;;
44456;SDS011;30159;49.316;8.558;2023-07-13T08:45:55;1.00;;;0.90;;
44456;SDS011;30159;49.316;8.558;2023-07-13T08:48:33;1.07;;;0.87;;
44456;SDS011;30159;49.316;8.558;2023-07-13T08:51:15;2.40;;;1.27;;
44456;SDS011;30159;49.316;8.558;2023-07-13T08:53:54;1.43;;;1.10;;
44456;SDS011;30159;49.316;8.558;2023-07-13T08:56:24;1.97;;;1.20;;
44456;SDS011;30159;49.316;8.558;2023-07-13T08:58:53;2.63;;;1.40;;
44456;SDS011;30159;49.316;8.558;2023-07-13T09:01:25;1.37;;;1.20;;
44456;SDS011;30159;49.316;8.558;2023-07-13T09:04:01;1.93;;;1.20;;
44456;SDS011;30159;49.316;8.558;2023-07-13T09:06:34;2.20;;;1.10;;
44456;SDS011;30159;49.316;8.558;2023-07-13T09:09:10;2.53;;;1.10;;
44456;SDS011;30159;49.316;8.558;2023-07-13T09:11:48;1.17;;;1.07;;
44456;SDS011;30159;49.316;8.558;2023-07-13T09:14:27;1.20;;;1.00;;
44456;SDS011;30159;49.316;8.558;2023-07-13T09:17:03;1.43;;;1.10;;
44456;SDS011;30159;49.316;8.558;2023-07-13T09:19:33;1.80;;;1.13;;
44456;SDS011;30159;49.316;8.558;2023-07-13T09:22:01;1.23;;;1.00;;
44456;SDS011;30159;49.316;8.558;2023-07-13T09:24:36;1.70;;;1.30;;
44456;SDS011;30159;49.316;8.558;2023-07-13T09:27:09;1.73;;;1.10;;
44456;SDS011;30159;49.316;8.558;2023-07-13T09:29:44;1.20;;;1.07;;
44456;SDS011;30159;49.316;8.558;2023-07-13T09:32:14;3.20;;;1.10;;
44456;SDS011;30159;49.316;8.558;2023-07-13T09:34:51;1.63;;;0.90;;
44456;SDS011;30159;49.316;8.558;2023-07-13T09:37:19;1.83;;;1.00;;
44456;SDS011;30159;49.316;8.558;2023-07-13T09:39:48;2.87;;;1.00;;
44456;SDS011;30159;49.316;8.558;2023-07-13T09:42:17;1.90;;;1.10;;
44456;SDS011;30159;49.316;8.558;2023-07-13T09:44:51;2.50;;;1.00;;
44456;SDS011;30159;49.316;8.558;2023-07-13T09:47:21;1.10;;;0.90;;
44456;SDS011;30159;49.316;8.558;2023-07-13T09:49:54;1.17;;;0.90;;
44456;SDS011;30159;49.316;8.558;2023-07-13T09:52:23;1.60;;;1.20;;
44456;SDS011;30159;49.316;8.558;2023-07-13T09:54:51;1.50;;;1.00;;
44456;SDS011;30159;49.316;8.558;2023-07-13T09:57:22;1.23;;;1.07;;
44456;SDS011;30159;49.316;8.558;2023-07-13T09:59:51;1.13;;;1.03;;
44456;SDS011;30159;49.316;8.558;2023-07-13T10:02:25;2.40;;;1.10;;
44456;SDS011;30159;49.316;8.558;2023-07-13T10:04:58;1.20;;;1.10;;
44456;SDS011;30159;49.316;8.558;2023-07-13T10:07:26;2.30;;;1.10;;
44456;SDS011;30159;49.316;8.558;2023-07-13T10:09:53;3.30;;;1.20;;
44456;SDS011;30159;49.316;8.558;2023-07-13T10:12:20;2.07;;;1.00;;
44456;SDS011;30159;49.316;8.558;2023-07-13T10:14:48;3.27;;;1.10;;
44456;SDS011;30159;49.316;8.558;2023-07-13T10:17:18;1.53;;;1.20;;
44456;SDS011;30159;49.316;8.558;2023-07-13T10:19:51;1.67;;;1.20;;
44456;SDS011;30159;49.316;8.558;2023-07-13T10:22:21;3.53;;;1.10;;
44456;SDS011;30159;49.316;8.558;2023-07-13T10:24:53;3.87;;;1.20;;
44456;SDS011;30159;49.316;8.558;2023-07-13T10:27:23;2.90;;;1.20;;
44456;SDS011;30159;49.316;8.558;2023-07-13T10:29:58;1.87;;;1.17;;
44456;SDS011;30159;49.316;8.558;2023-07-13T10:32:29;1.30;;;1.20;;
44456;SDS011;30159;49.316;8.558;2023-07-13T10:34:56;1.80;;;0.90;;
44456;SDS011;30159;49.316;8.558;2023-07-13T10:37:29;1.90;;;1.20;;
44456;SDS011;30159;49.316;8.558;2023-07-13T10:40:02;1.00;;;0.90;;
44456;SDS011;30159;49.316;8.558;2023-07-13T10:42:32;1.53;;;1.10;;
44456;SDS011;30159;49.316;8.558;2023-07-13T10:45:04;2.37;;;1.30;;
44456;SDS011;30159;49.316;8.558;2023-07-13T10:47:39;0.90;;;0.90;;
44456;SDS011;30159;49.316;8.558;2023-07-13T10:50:08;1.00;;;0.83;;
44456;SDS011;30159;49.316;8.558;2023-07-13T10:52:44;1.53;;;1.00;;
44456;SDS011;30159;49.316;8.558;2023-07-13T10:55:31;1.30;;;1.20;;
44456;SDS011;30159;49.316;8.558;2023-07-13T10:58:00;1.83;;;1.00;;
44456;SDS011;30159;49.316;8.558;2023-07-13T11:00:30;1.07;;;0.97;;
44456;SDS011;30159;49.316;8.558;2023-07-13T11:02:58;3.30;;;1.10;;
44456;SDS011;30159;49.316;8.558;2023-07-13T11:05:28;2.27;;;0.70;;
44456;SDS011;30159;49.316;8.558;2023-07-13T11:08:04;1.33;;;1.10;;
44456;SDS011;30159;49.316;8.558;2023-07-13T11:10:49;0.93;;;0.90;;
44456;SDS011;30159;49.316;8.558;2023-07-13T11:13:35;1.57;;;1.00;;
44456;SDS011;30159;49.316;8.558;2023-07-13T11:16:12;1.23;;;0.90;;
44456;SDS011;30159;49.316;8.558;2023-07-13T11:18:40;1.60;;;0.90;;
44456;SDS011;30159;49.316;8.558;2023-07-13T11:21:17;1.20;;;0.80;;
44456;SDS011;30159;49.316;8.558;2023-07-13T11:23:51;1.30;;;0.90;;
44456;SDS011;30159;49.316;8.558;2023-07-13T11:26:40;1.00;;;0.90;;
44456;SDS011;30159;49.316;8.558;2023-07-13T11:29:08;1.23;;;1.03;;
44456;SDS011;30159;49.316;8.558;2023-07-13T11:31:51;1.57;;;0.90;;
44456;SDS011;30159;49.316;8.558;2023-07-13T11:34:18;2.10;;;0.90;;
44456;SDS011;30159;49.316;8.558;2023-07-13T11:36:51;0.80;;;0.70;;
44456;SDS011;30159;49.316;8.558;2023-07-13T11:39:20;0.80;;;0.80;;
44456;SDS011;30159;49.316;8.558;2023-07-13T11:41:51;1.63;;;0.90;;
44456;SDS011;30159;49.316;8.558;2023-07-13T11:44:21;1.33;;;0.90;;
44456;SDS011;30159;49.316;8.558;2023-07-13T11:46:49;1.17;;;0.90;;
44456;SDS011;30159;49.316;8.558;2023-07-13T11:49:17;4.60;;;1.20;;
44456;SDS011;30159;49.316;8.558;2023-07-13T11:51:44;0.80;;;0.80;;
44456;SDS011;30159;49.316;8.558;2023-07-13T11:54:17;3.53;;;1.00;;
44456;SDS011;30159;49.316;8.558;2023-07-13T11:56:52;1.20;;;0.97;;
44456;SDS011;30159;49.316;8.558;2023-07-13T11:59:20;1.17;;;0.90;;
44456;SDS011;30159;49.316;8.558;2023-07-13T12:01:49;1.20;;;0.80;;
44456;SDS011;30159;49.316;8.558;2023-07-13T12:04:20;1.20;;;0.80;;
44456;SDS011;30159;49.316;8.558;2023-07-13T12:06:57;1.30;;;0.90;;
44456;SDS011;30159;49.316;8.558;2023-07-13T12:09:30;1.10;;;0.90;;
44456;SDS011;30159;49.316;8.558;2023-07-13T12:11:57;1.93;;;0.90;;
44456;SDS011;30159;49.316;8.558;2023-07-13T12:14:26;2.10;;;1.00;;
44456;SDS011;30159;49.316;8.558;2023-07-13T12:16:53;1.10;;;1.00;;
44456;SDS011;30159;49.316;8.558;2023-07-13T12:19:21;0.90;;;0.90;;
44456;SDS011;30159;49.316;8.558;2023-07-13T12:21:50;1.40;;;1.00;;
44456;SDS011;30159;49.316;8.558;2023-07-13T12:24:20;1.67;;;1.40;;
44456;SDS011;30159;49.316;8.558;2023-07-13T12:26:51;0.77;;;0.70;;
44456;SDS011;30159;49.316;8.558;2023-07-13T12:29:19;0.93;;;0.80;;
44456;SDS011;30159;49.316;8.558;2023-07-13T12:31:48;1.57;;;0.90;;
44456;SDS011;30159;49.316;8.558;2023-07-13T12:34:18;0.70;;;0.70;;
44456;SDS011;30159;49.316;8.558;2023-07-13T12:36:46;1.57;;;1.07;;
44456;SDS011;30159;49.316;8.558;2023-07-13T12:39:15;0.90;;;0.80;;
44456;SDS011;30159;49.316;8.558;2023-07-13T12:41:45;1.23;;;0.90;;
44456;SDS011;30159;49.316;8.558;2023-07-13T12:44:14;1.33;;;1.00;;
44456;SDS011;30159;49.316;8.558;2023-07-13T12:46:56;1.07;;;0.97;;
44456;SDS011;30159;49.316;8.558;2023-07-13T12:49:27;1.93;;;0.90;;
44456;SDS011;30159;49.316;8.558;2023-07-13T12:51:58;1.00;;;0.80;;
44456;SDS011;30159;49.316;8.558;2023-07-13T12:54:26;1.10;;;0.90;;
44456;SDS011;30159;49.316;8.558;2023-07-13T12:56:54;1.63;;;1.00;;
44456;SDS011;30159;49.316;8.558;2023-07-13T12:59:25;1.70;;;0.90;;
44456;SDS011;30159;49.316;8.558;2023-07-13T13:01:55;1.00;;;0.87;;
44456;SDS011;30159;49.316;8.558;2023-07-13T13:04:22;1.10;;;1.00;;
44456;SDS011;30159;49.316;8.558;2023-07-13T13:06:49;1.00;;;0.90;;
44456;SDS011;30159;49.316;8.558;2023-07-13T13:09:26;1.00;;;0.90;;
44456;SDS011;30159;49.316;8.558;2023-07-13T13:11:52;1.60;;;0.80;;
44456;SDS011;30159;49.316;8.558;2023-07-13T13:14:19;0.80;;;0.70;;
44456;SDS011;30159;49.316;8.558;2023-07-13T13:16:47;1.00;;;0.90;;
44456;SDS011;30159;49.316;8.558;2023-07-13T13:19:16;2.00;;;1.10;;
44456;SDS011;30159;49.316;8.558;2023-07-13T13:21:45;3.80;;;1.07;;
44456;SDS011;30159;49.316;8.558;2023-07-13T13:24:12;1.20;;;0.87;;
44456;SDS011;30159;49.316;8.558;2023-07-13T13:26:40;0.90;;;0.80;;
44456;SDS011;30159;49.316;8.558;2023-07-13T13:29:11;0.90;;;0.70;;
44456;SDS011;30159;49.316;8.558;2023-07-13T13:31:40;0.93;;;0.80;;
44456;SDS011;30159;49.316;8.558;2023-07-13T13:34:08;1.70;;;0.97;;
44456;SDS011;30159;49.316;8.558;2023-07-13T13:36:36;1.13;;;0.80;;
44456;SDS011;30159;49.316;8.558;2023-07-13T13:39:05;1.07;;;0.90;;
44456;SDS011;30159;49.316;8.558;2023-07-13T13:41:44;1.00;;;1.00;;
44456;SDS011;30159;49.316;8.558;2023-07-13T13:44:12;1.43;;;0.80;;
44456;SDS011;30159;49.316;8.558;2023-07-13T13:46:40;9.23;;;1.00;;
44456;SDS011;30159;49.316;8.558;2023-07-13T13:49:10;4.80;;;1.00;;
44456;SDS011;30159;49.316;8.558;2023-07-13T13:51:41;1.63;;;0.90;;
44456;SDS011;30159;49.316;8.558;2023-07-13T13:54:09;1.03;;;0.90;;
44456;SDS011;30159;49.316;8.558;2023-07-13T13:56:37;5.50;;;0.83;;
44456;SDS011;30159;49.316;8.558;2023-07-13T13:59:03;1.87;;;1.00;;
44456;SDS011;30159;49.316;8.558;2023-07-13T14:01:30;2.80;;;0.83;;
44456;SDS011;30159;49.316;8.558;2023-07-13T14:03:57;1.17;;;0.80;;
44456;SDS011;30159;49.316;8.558;2023-07-13T14:06:25;0.90;;;0.80;;
44456;SDS011;30159;49.316;8.558;2023-07-13T14:08:52;1.40;;;0.90;;
44456;SDS011;30159;49.316;8.558;2023-07-13T14:11:20;1.03;;;0.90;;
44456;SDS011;30159;49.316;8.558;2023-07-13T14:13:48;0.70;;;0.70;;
44456;SDS011;30159;49.316;8.558;2023-07-13T14:16:17;2.27;;;0.80;;
44456;SDS011;30159;49.316;8.558;2023-07-13T14:18:46;2.10;;;1.00;;
44456;SDS011;30159;49.316;8.558;2023-07-13T14:21:13;1.67;;;0.97;;
44456;SDS011;30159;49.316;8.558;2023-07-13T14:23:43;0.97;;;0.93;;
44456;SDS011;30159;49.316;8.558;2023-07-13T14:26:10;1.13;;;1.00;;
44456;SDS011;30159;49.316;8.558;2023-07-13T14:28:38;1.67;;;0.80;;
44456;SDS011;30159;49.316;8.558;2023-07-13T14:31:08;1.00;;;0.90;;
44456;SDS011;30159;49.316;8.558;2023-07-13T14:33:35;1.60;;;0.90;;
44456;SDS011;30159;49.316;8.558;2023-07-13T14:36:01;1.23;;;0.80;;
44456;SDS011;30159;49.316;8.558;2023-07-13T14:38:28;1.63;;;0.90;;
44456;SDS011;30159;49.316;8.558;2023-07-13T14:40:56;2.90;;;0.83;;
44456;SDS011;30159;49.316;8.558;2023-07-13T14:43:22;1.40;;;1.00;;
44456;SDS011;30159;49.316;8.558;2023-07-13T14:45:50;1.20;;;1.10;;
44456;SDS011;30159;49.316;8.558;2023-07-13T14:48:17;1.53;;;0.80;;
44456;SDS011;30159;49.316;8.558;2023-07-13T14:50:46;1.50;;;1.00;;
44456;SDS011;30159;49.316;8.558;2023-07-13T14:53:13;1.77;;;0.90;;
44456;SDS011;30159;49.316;8.558;2023-07-13T14:55:40;1.37;;;0.90;;
44456;SDS011;30159;49.316;8.558;2023-07-13T14:58:09;1.00;;;0.90;;